createdAt,value
2022-09-11T00:01:07.764Z,99.90
2022-09-11T00:03:35.084Z,99.90
2022-09-11T00:06:07.546Z,99.90
2022-09-11T00:08:35.075Z,99.90
2022-09-11T00:11:08.360Z,99.90
2022-09-11T00:13:36.304Z,99.90
2022-09-11T00:16:05.563Z,99.90
2022-09-11T00:18:35.895Z,99.90
2022-09-11T00:21:03.778Z,99.90
2022-09-11T00:23:30.918Z,99.90
2022-09-11T00:26:02.356Z,99.90
2022-09-11T00:28:29.389Z,99.90
2022-09-11T00:31:05.253Z,99.90
2022-09-11T00:33:33.432Z,99.90
2022-09-11T00:36:07.780Z,99.90
2022-09-11T00:38:36.740Z,99.90
2022-09-11T00:41:06.643Z,99.90
2022-09-11T00:43:52.106Z,99.90
2022-09-11T00:46:19.617Z,99.90
2022-09-11T00:48:49.712Z,99.90
2022-09-11T00:51:22.699Z,99.90
2022-09-11T00:53:50.663Z,99.90
2022-09-11T00:56:18.011Z,99.90
2022-09-11T00:58:47.128Z,99.90
2022-09-11T01:01:14.813Z,99.90
2022-09-11T01:03:42.429Z,99.90
2022-09-11T01:06:10.654Z,99.90
2022-09-11T01:08:38.532Z,99.90
2022-09-11T01:11:17.624Z,99.90
2022-09-11T01:13:52.598Z,99.90
2022-09-11T01:16:40.528Z,99.90
2022-09-11T01:19:38.193Z,99.90
2022-09-11T01:22:33.174Z,99.90
2022-09-11T01:25:27.877Z,99.90
2022-09-11T01:27:56.257Z,99.90
2022-09-11T01:30:27.681Z,99.90
2022-09-11T01:33:03.212Z,99.90
2022-09-11T01:35:41.712Z,99.90
2022-09-11T01:38:18.393Z,99.90
2022-09-11T01:40:57.501Z,99.90
2022-09-11T01:43:30.618Z,99.90
2022-09-11T01:46:00.317Z,99.90
2022-09-11T01:48:32.016Z,99.90
2022-09-11T01:51:00.967Z,99.90
2022-09-11T01:53:33.082Z,99.90
2022-09-11T01:56:08.020Z,99.90
2022-09-11T01:58:38.565Z,99.90
2022-09-11T02:01:10.049Z,99.90
2022-09-11T02:03:50.506Z,99.90
2022-09-11T02:06:28.085Z,99.90
2022-09-11T02:08:58.622Z,99.90
2022-09-11T02:11:25.378Z,99.90
2022-09-11T02:14:06.935Z,99.90
2022-09-11T02:16:44.522Z,99.90
2022-09-11T02:19:17.682Z,99.90
2022-09-11T02:21:45.362Z,99.90
2022-09-11T02:24:12.053Z,99.90
2022-09-11T02:26:42.654Z,99.90
2022-09-11T02:29:10.370Z,99.90
2022-09-11T02:31:37.417Z,99.90
2022-09-11T02:34:04.183Z,99.90
2022-09-11T02:36:55.822Z,99.90
2022-09-11T02:39:28.602Z,99.90
2022-09-11T02:42:01.205Z,99.90
2022-09-11T02:44:37.864Z,99.90
2022-09-11T02:47:11.564Z,99.90
2022-09-11T02:49:51.474Z,99.90
2022-09-11T02:52:37.649Z,99.90
2022-09-11T02:55:21.078Z,99.90
2022-09-11T02:58:04.486Z,99.90
2022-09-11T03:00:31.442Z,99.90
2022-09-11T03:02:58.289Z,99.90
2022-09-11T03:05:24.941Z,99.90
2022-09-11T03:07:51.822Z,99.90
2022-09-11T03:10:18.525Z,99.90
2022-09-11T03:12:45.211Z,99.90
2022-09-11T03:15:12.435Z,99.90
2022-09-11T03:17:39.082Z,99.90
2022-09-11T03:20:06.587Z,99.90
2022-09-11T03:22:33.319Z,99.90
2022-09-11T03:25:00.028Z,99.90
2022-09-11T03:27:28.118Z,99.90
2022-09-11T03:29:55.589Z,99.90
2022-09-11T03:32:22.835Z,99.90
2022-09-11T03:34:49.620Z,99.90
2022-09-11T03:37:16.336Z,99.90
2022-09-11T03:39:43.442Z,99.90
2022-09-11T03:42:13.187Z,99.90
2022-09-11T03:44:40.984Z,99.90
2022-09-11T03:47:07.988Z,99.90
2022-09-11T03:49:34.970Z,99.90
2022-09-11T03:52:02.135Z,99.90
2022-09-11T03:54:28.928Z,99.90
2022-09-11T03:56:55.612Z,99.90
2022-09-11T03:59:22.351Z,99.90
2022-09-11T04:01:50.683Z,99.90
2022-09-11T04:04:17.609Z,99.90
2022-09-11T04:06:44.437Z,99.90
2022-09-11T04:09:11.124Z,99.90
2022-09-11T04:11:39.946Z,99.90
2022-09-11T04:14:07.950Z,99.90
2022-09-11T04:16:35.720Z,99.90
2022-09-11T04:19:03.099Z,99.90
2022-09-11T04:21:30.000Z,99.90
2022-09-11T04:24:00.144Z,99.90
2022-09-11T04:26:29.903Z,99.90
2022-09-11T04:28:57.629Z,99.90
2022-09-11T04:31:26.235Z,99.90
2022-09-11T04:33:57.543Z,99.90
2022-09-11T04:36:25.970Z,99.90
2022-09-11T04:38:57.856Z,99.90
2022-09-11T04:41:25.393Z,99.90
2022-09-11T04:43:57.561Z,99.90
2022-09-11T04:46:25.866Z,99.90
2022-09-11T04:48:59.163Z,99.90
2022-09-11T04:51:33.957Z,99.90
2022-09-11T04:54:01.174Z,99.90
2022-09-11T04:56:30.818Z,99.90
2022-09-11T04:59:00.024Z,99.90
2022-09-11T05:01:28.522Z,99.90
2022-09-11T05:03:56.239Z,99.90
2022-09-11T05:06:23.502Z,99.90
2022-09-11T05:08:51.031Z,99.90
2022-09-11T05:11:20.896Z,99.90
2022-09-11T05:13:48.560Z,99.90
2022-09-11T05:16:17.224Z,99.90
2022-09-11T05:18:51.837Z,99.90
2022-09-11T05:21:20.105Z,99.90
2022-09-11T05:23:48.951Z,99.90
2022-09-11T05:26:18.362Z,99.90
2022-09-11T05:28:45.464Z,99.90
2022-09-11T05:31:15.687Z,99.90
2022-09-11T05:33:44.064Z,99.90
2022-09-11T05:36:12.023Z,99.90
2022-09-11T05:38:39.215Z,99.90
2022-09-11T05:41:06.986Z,99.90
2022-09-11T05:43:34.504Z,99.90
2022-09-11T05:46:01.673Z,99.90
2022-09-11T05:48:29.528Z,99.90
2022-09-11T05:51:06.808Z,99.90
2022-09-11T05:53:33.842Z,99.90
2022-09-11T05:56:10.944Z,99.90
2022-09-11T05:58:37.622Z,99.90
2022-09-11T06:01:06.250Z,99.90
2022-09-11T06:03:33.192Z,99.90
2022-09-11T06:06:01.637Z,99.90
2022-09-11T06:08:29.403Z,99.90
2022-09-11T06:10:58.120Z,99.90
2022-09-11T06:13:26.558Z,99.90
2022-09-11T06:15:53.344Z,99.90
2022-09-11T06:18:20.239Z,99.90
2022-09-11T06:21:07.122Z,99.90
2022-09-11T06:23:35.177Z,99.90
2022-09-11T06:26:06.616Z,99.90
2022-09-11T06:28:35.635Z,99.90
2022-09-11T06:31:03.819Z,99.90
2022-09-11T06:33:38.528Z,99.90
2022-09-11T06:36:06.785Z,99.90
2022-09-11T06:38:33.758Z,99.90
2022-09-11T06:41:05.345Z,99.90
2022-09-11T06:43:32.968Z,99.90
2022-09-11T06:46:05.786Z,99.90
2022-09-11T06:48:32.634Z,99.90
2022-09-11T06:51:03.991Z,99.90
2022-09-11T06:53:30.807Z,99.90
2022-09-11T06:56:01.736Z,99.90
2022-09-11T06:58:29.426Z,99.90
2022-09-11T07:00:57.522Z,99.90
2022-09-11T07:03:24.305Z,99.90
2022-09-11T07:05:51.038Z,99.90
2022-09-11T07:08:20.725Z,99.90
2022-09-11T07:10:49.713Z,99.90
2022-09-11T07:13:16.417Z,99.90
2022-09-11T07:15:43.448Z,99.90
2022-09-11T07:18:10.113Z,99.90
2022-09-11T07:20:39.329Z,99.90
2022-09-11T07:23:06.040Z,99.90
2022-09-11T07:25:32.672Z,99.90
2022-09-11T07:27:59.488Z,99.90
2022-09-11T07:30:27.151Z,99.90
2022-09-11T07:32:54.097Z,99.90
2022-09-11T07:35:21.762Z,99.90
2022-09-11T07:37:50.858Z,99.90
2022-09-11T07:40:18.250Z,99.90
2022-09-11T07:42:45.004Z,99.90
2022-09-11T07:45:11.997Z,99.90
2022-09-11T07:47:38.735Z,99.90
2022-09-11T07:50:06.154Z,99.90
2022-09-11T07:52:33.234Z,99.90
2022-09-11T07:55:01.368Z,99.90
2022-09-11T07:57:30.239Z,99.90
2022-09-11T07:59:57.079Z,99.90
2022-09-11T08:02:23.995Z,99.90
2022-09-11T08:04:51.545Z,99.90
2022-09-11T08:07:18.561Z,99.90
2022-09-11T08:09:45.278Z,99.90
2022-09-11T08:12:12.672Z,99.90
2022-09-11T08:14:39.477Z,99.90
2022-09-11T08:17:06.151Z,99.90
2022-09-11T08:19:33.173Z,99.90
2022-09-11T08:22:00.299Z,99.90
2022-09-11T08:24:27.375Z,99.90
2022-09-11T08:26:54.335Z,99.90
2022-09-11T08:29:21.463Z,99.90
2022-09-11T08:31:48.125Z,99.90
2022-09-11T08:34:15.378Z,99.90
2022-09-11T08:36:42.492Z,99.90
2022-09-11T08:39:09.739Z,99.90
2022-09-11T08:41:47.609Z,99.90
2022-09-11T08:44:27.564Z,99.90
2022-09-11T08:46:59.332Z,99.90
2022-09-11T08:49:38.370Z,99.90
2022-09-11T08:52:05.944Z,99.90
2022-09-11T08:54:36.418Z,99.90
2022-09-11T08:57:08.513Z,99.90
2022-09-11T08:59:50.277Z,99.90
2022-09-11T09:02:46.763Z,99.90
2022-09-11T09:05:50.122Z,99.90
2022-09-11T09:08:22.793Z,99.90
2022-09-11T09:11:20.418Z,99.90
2022-09-11T09:13:59.489Z,99.90
2022-09-11T09:16:52.065Z,99.90
2022-09-11T09:19:27.065Z,99.90
2022-09-11T09:21:59.907Z,99.90
2022-09-11T09:24:30.035Z,99.90
2022-09-11T09:26:57.452Z,99.90
2022-09-11T09:29:28.497Z,99.90
2022-09-11T09:32:02.012Z,99.90
2022-09-11T09:34:31.550Z,99.90
2022-09-11T09:37:23.237Z,99.90
2022-09-11T09:39:50.262Z,99.90
2022-09-11T09:42:41.798Z,99.90
2022-09-11T09:45:35.086Z,99.90
2022-09-11T09:48:02.105Z,99.90
2022-09-11T09:50:32.842Z,99.90
2022-09-11T09:53:13.138Z,99.90
2022-09-11T09:55:40.572Z,99.90
2022-09-11T09:58:07.588Z,99.90
2022-09-11T10:00:36.638Z,99.90
2022-09-11T10:03:22.102Z,99.90
2022-09-11T10:05:50.551Z,99.90
2022-09-11T10:08:29.209Z,99.90
2022-09-11T10:11:28.093Z,99.90
2022-09-11T10:13:55.834Z,99.90
2022-09-11T10:16:25.337Z,99.90
2022-09-11T10:18:53.268Z,99.90
2022-09-11T10:21:24.649Z,99.90
2022-09-11T10:24:26.202Z,99.90
2022-09-11T10:26:54.981Z,99.90
2022-09-11T10:29:30.034Z,99.90
2022-09-11T10:31:59.527Z,99.40
2022-09-11T10:34:27.393Z,98.90
2022-09-11T10:36:56.147Z,98.80
2022-09-11T10:39:25.038Z,98.80
2022-09-11T10:41:54.452Z,99.40
2022-09-11T10:44:22.127Z,99.20
2022-09-11T10:47:09.054Z,98.60
2022-09-11T10:49:36.140Z,97.90
2022-09-11T10:52:16.725Z,98.10
2022-09-11T10:55:07.984Z,97.50
2022-09-11T10:57:43.915Z,97.60
2022-09-11T11:00:29.189Z,98.30
2022-09-11T11:02:58.459Z,98.70
2022-09-11T11:05:43.907Z,96.90
2022-09-11T11:08:31.082Z,96.60
2022-09-11T11:11:07.488Z,97.00
2022-09-11T11:13:52.338Z,97.00
2022-09-11T11:16:42.807Z,97.10
2022-09-11T11:19:45.291Z,97.30
2022-09-11T11:22:46.789Z,97.90
2022-09-11T11:25:34.495Z,97.60
2022-09-11T11:28:14.914Z,96.80
2022-09-11T11:30:44.891Z,96.40
2022-09-11T11:33:20.417Z,94.80
2022-09-11T11:35:50.327Z,94.20
2022-09-11T11:38:39.954Z,94.50
2022-09-11T11:41:15.690Z,92.50
2022-09-11T11:43:44.312Z,92.40
2022-09-11T11:46:21.550Z,91.20
2022-09-11T11:49:15.069Z,90.70
2022-09-11T11:51:49.976Z,91.80
2022-09-11T11:54:27.306Z,92.10
2022-09-11T11:56:59.086Z,92.60
2022-09-11T11:59:32.065Z,93.00
2022-09-11T12:02:11.770Z,93.50
2022-09-11T12:04:58.464Z,91.50
2022-09-11T12:07:37.071Z,91.90
2022-09-11T12:10:06.898Z,91.10
2022-09-11T12:12:35.637Z,90.70
2022-09-11T12:15:08.244Z,90.90
2022-09-11T12:17:36.783Z,85.30
2022-09-11T12:20:09.511Z,86.50
2022-09-11T12:22:41.792Z,87.20
2022-09-11T12:25:23.451Z,90.30
2022-09-11T12:28:09.834Z,90.80
2022-09-11T12:31:00.062Z,91.00
2022-09-11T12:33:43.432Z,89.90
2022-09-11T12:36:50.613Z,90.10
2022-09-11T12:39:40.212Z,89.00
2022-09-11T12:42:39.198Z,88.70
2022-09-11T12:45:36.092Z,89.00
2022-09-11T12:48:05.367Z,90.10
2022-09-11T12:50:32.670Z,91.10
2022-09-11T12:53:02.420Z,91.90
2022-09-11T12:55:35.518Z,92.10
2022-09-11T12:58:07.123Z,92.20
2022-09-11T13:00:38.345Z,92.40
2022-09-11T13:03:06.575Z,91.90
2022-09-11T13:05:37.976Z,92.00
2022-09-11T13:08:16.891Z,91.80
2022-09-11T13:10:43.649Z,91.90
2022-09-11T13:13:35.414Z,90.90
2022-09-11T13:16:18.951Z,90.80
2022-09-11T13:18:45.974Z,88.70
2022-09-11T13:21:15.625Z,85.80
2022-09-11T13:23:43.002Z,85.80
2022-09-11T13:26:22.934Z,86.40
2022-09-11T13:28:51.707Z,87.80
2022-09-11T13:31:21.419Z,86.90
2022-09-11T13:33:50.126Z,88.30
2022-09-11T13:36:20.063Z,87.40
2022-09-11T13:38:49.600Z,86.90
2022-09-11T13:41:18.983Z,86.50
2022-09-11T13:43:57.536Z,84.60
2022-09-11T13:46:31.553Z,83.20
2022-09-11T13:49:10.988Z,84.20
2022-09-11T13:51:42.430Z,84.50
2022-09-11T13:54:24.544Z,84.40
2022-09-11T13:56:58.194Z,82.30
2022-09-11T13:59:44.572Z,82.90
2022-09-11T14:02:43.731Z,82.40
2022-09-11T14:05:22.569Z,83.90
2022-09-11T14:08:21.525Z,84.40
2022-09-11T14:10:56.424Z,84.70
2022-09-11T14:13:38.166Z,85.00
2022-09-11T14:16:09.111Z,84.60
2022-09-11T14:18:55.528Z,84.70
2022-09-11T14:21:25.887Z,83.60
2022-09-11T14:23:54.623Z,85.40
2022-09-11T14:26:24.107Z,85.60
2022-09-11T14:28:56.951Z,85.70
2022-09-11T14:31:38.111Z,85.50
2022-09-11T14:34:12.174Z,85.40
2022-09-11T14:36:44.175Z,85.30
2022-09-11T14:39:15.040Z,85.50
2022-09-11T14:41:44.932Z,84.40
2022-09-11T14:44:16.490Z,84.90
2022-09-11T14:46:43.518Z,85.10
2022-09-11T14:49:10.832Z,82.80
2022-09-11T14:51:38.125Z,83.40
2022-09-11T14:54:05.534Z,83.60
2022-09-11T14:56:33.094Z,84.90
2022-09-11T14:58:59.777Z,82.80
2022-09-11T15:01:26.474Z,82.40
2022-09-11T15:03:54.655Z,83.40
2022-09-11T15:06:22.189Z,83.80
2022-09-11T15:08:48.878Z,82.90
2022-09-11T15:11:15.901Z,83.80
2022-09-11T15:13:58.141Z,84.10
2022-09-11T15:16:31.070Z,84.90
2022-09-11T15:18:58.240Z,84.00
2022-09-11T15:21:24.913Z,84.50
2022-09-11T15:23:51.561Z,84.10
2022-09-11T15:26:18.376Z,84.00
2022-09-11T15:28:49.537Z,83.90
2022-09-11T15:31:18.410Z,83.50
2022-09-11T15:33:50.323Z,83.40
2022-09-11T15:36:18.439Z,84.30
2022-09-11T15:38:54.313Z,84.30
2022-09-11T15:41:22.071Z,84.60
2022-09-11T15:43:50.460Z,86.10
2022-09-11T15:46:21.171Z,84.80
2022-09-11T15:48:49.799Z,85.60
2022-09-11T15:51:21.650Z,83.80
2022-09-11T15:53:48.443Z,84.90
2022-09-11T15:56:16.829Z,84.40
2022-09-11T15:58:45.616Z,84.60
2022-09-11T16:01:42.223Z,85.30
2022-09-11T16:04:10.987Z,85.90
2022-09-11T16:06:42.894Z,85.30
2022-09-11T16:09:13.521Z,86.10
2022-09-11T16:11:40.890Z,84.60
2022-09-11T16:14:08.796Z,84.30
2022-09-11T16:16:35.614Z,85.10
2022-09-11T16:19:02.257Z,85.30
2022-09-11T16:21:28.963Z,85.60
2022-09-11T16:24:00.710Z,85.80
2022-09-11T16:26:29.068Z,87.00
2022-09-11T16:28:55.827Z,87.80
2022-09-11T16:31:22.581Z,88.30
2022-09-11T16:33:49.740Z,88.70
2022-09-11T16:36:18.636Z,89.10
2022-09-11T16:38:45.722Z,89.40
2022-09-11T16:41:18.919Z,90.00
2022-09-11T16:43:48.102Z,90.00
2022-09-11T16:46:17.965Z,90.10
2022-09-11T16:48:45.046Z,90.20
2022-09-11T16:51:13.418Z,90.20
2022-09-11T16:53:41.172Z,90.40
2022-09-11T16:56:13.067Z,90.60
2022-09-11T16:58:43.457Z,90.60
2022-09-11T17:01:27.851Z,90.70
2022-09-11T17:03:58.185Z,90.60
2022-09-11T17:06:31.151Z,90.80
2022-09-11T17:09:02.476Z,91.00
2022-09-11T17:11:36.915Z,91.00
2022-09-11T17:14:14.315Z,91.20
2022-09-11T17:16:51.882Z,91.40
2022-09-11T17:19:20.748Z,91.50
2022-09-11T17:21:49.679Z,91.70
2022-09-11T17:24:22.840Z,91.80
2022-09-11T17:27:01.032Z,91.90
2022-09-11T17:29:28.821Z,92.00
2022-09-11T17:32:26.291Z,92.20
2022-09-11T17:34:53.524Z,92.30
2022-09-11T17:37:26.855Z,92.50
2022-09-11T17:40:05.353Z,92.60
2022-09-11T17:42:35.051Z,92.80
2022-09-11T17:45:04.512Z,93.00
2022-09-11T17:47:36.183Z,93.10
2022-09-11T17:50:04.420Z,93.20
2022-09-11T17:52:34.744Z,93.30
2022-09-11T17:55:03.564Z,93.40
2022-09-11T17:57:33.645Z,93.50
2022-09-11T18:00:13.309Z,93.60
2022-09-11T18:02:41.011Z,93.80
2022-09-11T18:05:07.988Z,93.90
2022-09-11T18:07:34.768Z,94.00
2022-09-11T18:10:03.895Z,94.00
2022-09-11T18:12:35.107Z,94.10
2022-09-11T18:15:02.318Z,94.20
2022-09-11T18:17:29.670Z,94.30
2022-09-11T18:19:56.399Z,94.30
2022-09-11T18:22:23.313Z,94.40
2022-09-11T18:24:52.839Z,94.40
2022-09-11T18:27:19.997Z,94.50
2022-09-11T18:29:46.767Z,94.50
2022-09-11T18:32:13.523Z,94.60
2022-09-11T18:34:40.259Z,94.60
2022-09-11T18:37:07.780Z,94.70
2022-09-11T18:39:34.818Z,94.80
2022-09-11T18:42:02.015Z,94.80
2022-09-11T18:44:29.032Z,94.80
2022-09-11T18:46:56.086Z,94.90
2022-09-11T18:49:22.999Z,94.90
2022-09-11T18:51:50.339Z,95.00
2022-09-11T18:54:20.082Z,95.10
2022-09-11T18:56:48.609Z,95.20
2022-09-11T18:59:15.601Z,95.20
2022-09-11T19:01:42.524Z,95.20
2022-09-11T19:04:11.078Z,95.30
2022-09-11T19:06:41.189Z,95.30
2022-09-11T19:09:10.411Z,95.30
2022-09-11T19:11:37.763Z,95.40
2022-09-11T19:14:07.364Z,95.50
2022-09-11T19:16:34.684Z,95.70
2022-09-11T19:19:02.052Z,95.80
2022-09-11T19:21:29.064Z,96.00
2022-09-11T19:23:58.040Z,96.00
2022-09-11T19:26:28.928Z,96.20
2022-09-11T19:28:56.475Z,96.30
2022-09-11T19:31:25.454Z,96.40
2022-09-11T19:33:52.748Z,96.50
2022-09-11T19:36:21.838Z,96.50
2022-09-11T19:38:51.470Z,96.50
2022-09-11T19:41:20.644Z,96.50
2022-09-11T19:43:47.823Z,96.50
2022-09-11T19:46:17.073Z,96.50
2022-09-11T19:48:45.533Z,96.50
2022-09-11T19:51:16.072Z,96.60
2022-09-11T19:53:43.636Z,96.70
2022-09-11T19:56:11.413Z,96.70
2022-09-11T19:58:38.806Z,96.80
2022-09-11T20:01:09.161Z,96.90
2022-09-11T20:03:41.902Z,97.00
2022-09-11T20:06:09.459Z,97.00
2022-09-11T20:08:37.063Z,97.10
2022-09-11T20:11:06.627Z,97.20
2022-09-11T20:13:34.826Z,97.10
2022-09-11T20:16:05.704Z,97.10
2022-09-11T20:18:32.891Z,97.10
2022-09-11T20:21:04.244Z,97.00
2022-09-11T20:23:31.245Z,97.00
2022-09-11T20:26:19.311Z,97.00
2022-09-11T20:28:47.193Z,97.10
2022-09-11T20:31:21.853Z,97.00
2022-09-11T20:33:49.458Z,97.00
2022-09-11T20:36:16.617Z,97.00
2022-09-11T20:38:43.318Z,96.90
2022-09-11T20:41:12.246Z,96.90
2022-09-11T20:43:39.255Z,97.00
2022-09-11T20:46:06.731Z,97.10
2022-09-11T20:48:34.356Z,97.10
2022-09-11T20:51:03.176Z,97.20
2022-09-11T20:53:29.899Z,97.30
2022-09-11T20:56:11.048Z,97.30
2022-09-11T20:58:38.890Z,97.30
2022-09-11T21:01:07.122Z,97.30
2022-09-11T21:03:34.214Z,97.40
2022-09-11T21:06:08.634Z,97.30
2022-09-11T21:08:35.653Z,97.40
2022-09-11T21:11:04.298Z,97.40
2022-09-11T21:13:34.194Z,97.30
2022-09-11T21:16:00.914Z,97.30
2022-09-11T21:18:27.614Z,97.40
2022-09-11T21:20:55.753Z,97.40
2022-09-11T21:23:23.555Z,97.40
2022-09-11T21:25:52.710Z,97.50
2022-09-11T21:28:20.053Z,97.60
2022-09-11T21:30:46.739Z,97.70
2022-09-11T21:33:13.417Z,97.80
2022-09-11T21:35:40.112Z,97.80
2022-09-11T21:38:07.032Z,97.80
2022-09-11T21:40:33.722Z,97.90
2022-09-11T21:43:00.377Z,98.00
2022-09-11T21:45:27.099Z,98.00
2022-09-11T21:47:53.975Z,98.30
2022-09-11T21:50:20.952Z,98.00
2022-09-11T21:52:47.653Z,98.00
2022-09-11T21:55:14.556Z,98.00
2022-09-11T21:57:41.234Z,98.00
2022-09-11T22:00:11.659Z,98.00
2022-09-11T22:02:38.665Z,98.00
2022-09-11T22:05:06.185Z,98.00
2022-09-11T22:07:32.939Z,98.10
2022-09-11T22:09:59.833Z,98.10
2022-09-11T22:12:26.618Z,98.00
2022-09-11T22:14:54.917Z,98.10
2022-09-11T22:17:22.890Z,98.10
2022-09-11T22:19:49.575Z,98.10
2022-09-11T22:22:16.662Z,98.20
2022-09-11T22:24:43.512Z,98.20
2022-09-11T22:27:10.856Z,98.20
2022-09-11T22:29:37.790Z,98.20
2022-09-11T22:32:05.318Z,98.10
2022-09-11T22:34:33.992Z,98.10
2022-09-11T22:37:00.998Z,98.00
2022-09-11T22:39:27.649Z,98.00
2022-09-11T22:41:54.466Z,97.90
2022-09-11T22:44:21.145Z,97.90
2022-09-11T22:46:48.880Z,97.80
2022-09-11T22:49:15.787Z,97.80
2022-09-11T22:51:42.534Z,97.80
2022-09-11T22:54:09.234Z,97.80
2022-09-11T22:56:36.160Z,97.70
2022-09-11T22:59:03.443Z,97.70
2022-09-11T23:01:30.162Z,98.00
2022-09-11T23:03:56.811Z,97.70
2022-09-11T23:06:42.318Z,97.70
2022-09-11T23:09:12.941Z,97.80
2022-09-11T23:11:40.208Z,97.80
2022-09-11T23:14:13.727Z,97.80
2022-09-11T23:16:41.322Z,97.80
2022-09-11T23:19:08.275Z,97.80
2022-09-11T23:21:35.775Z,97.80
2022-09-11T23:24:03.177Z,97.80
2022-09-11T23:26:30.094Z,97.70
2022-09-11T23:28:57.163Z,97.70
2022-09-11T23:31:26.600Z,97.70
2022-09-11T23:33:55.390Z,97.70
2022-09-11T23:36:22.525Z,97.70
2022-09-11T23:38:50.314Z,97.60
2022-09-11T23:41:17.791Z,97.60
2022-09-11T23:43:46.055Z,97.60
2022-09-11T23:46:13.318Z,97.50
2022-09-11T23:48:40.291Z,97.50
2022-09-11T23:51:10.331Z,97.50
2022-09-11T23:53:43.450Z,97.50
2022-09-11T23:56:14.278Z,97.50
2022-09-11T23:58:41.138Z,97.50
